sensor_id;sensor_type;location;lat;lon;timestamp;temperature;humidity
43920;DHT22;29578;51.946;5.874;2022-08-05T00:00:28;19.50;74.50
43920;DHT22;29578;51.946;5.874;2022-08-05T00:02:54;19.60;74.60
43920;DHT22;29578;51.946;5.874;2022-08-05T00:05:22;19.60;74.70
43920;DHT22;29578;51.946;5.874;2022-08-05T00:07:48;19.60;74.80
43920;DHT22;29578;51.946;5.874;2022-08-05T00:10:14;19.50;74.80
43920;DHT22;29578;51.946;5.874;2022-08-05T00:12:40;19.50;74.90
43920;DHT22;29578;51.946;5.874;2022-08-05T00:15:08;19.50;74.90
43920;DHT22;29578;51.946;5.874;2022-08-05T00:17:34;19.50;75.00
43920;DHT22;29578;51.946;5.874;2022-08-05T00:19:59;19.40;75.00
43920;DHT22;29578;51.946;5.874;2022-08-05T00:22:25;19.40;75.00
43920;DHT22;29578;51.946;5.874;2022-08-05T00:24:51;19.30;75.00
43920;DHT22;29578;51.946;5.874;2022-08-05T00:27:16;19.40;75.20
43920;DHT22;29578;51.946;5.874;2022-08-05T00:29:45;19.40;75.30
43920;DHT22;29578;51.946;5.874;2022-08-05T00:32:10;19.40;75.40
43920;DHT22;29578;51.946;5.874;2022-08-05T00:34:39;19.30;75.30
43920;DHT22;29578;51.946;5.874;2022-08-05T00:37:05;19.30;75.30
43920;DHT22;29578;51.946;5.874;2022-08-05T00:39:33;19.30;75.40
43920;DHT22;29578;51.946;5.874;2022-08-05T00:41:59;19.40;75.50
43920;DHT22;29578;51.946;5.874;2022-08-05T00:44:25;19.30;75.50
43920;DHT22;29578;51.946;5.874;2022-08-05T00:46:51;19.20;75.50
43920;DHT22;29578;51.946;5.874;2022-08-05T00:49:16;19.30;75.60
43920;DHT22;29578;51.946;5.874;2022-08-05T00:51:45;19.10;75.60
43920;DHT22;29578;51.946;5.874;2022-08-05T00:54:12;19.20;75.80
43920;DHT22;29578;51.946;5.874;2022-08-05T00:56:38;19.20;75.90
43920;DHT22;29578;51.946;5.874;2022-08-05T00:59:05;19.10;75.80
43920;DHT22;29578;51.946;5.874;2022-08-05T01:01:31;19.10;75.90
43920;DHT22;29578;51.946;5.874;2022-08-05T01:03:56;19.10;75.90
43920;DHT22;29578;51.946;5.874;2022-08-05T01:06:22;19.10;75.90
43920;DHT22;29578;51.946;5.874;2022-08-05T01:08:48;19.10;76.00
43920;DHT22;29578;51.946;5.874;2022-08-05T01:11:26;19.10;76.00
43920;DHT22;29578;51.946;5.874;2022-08-05T01:14:17;19.10;76.20
43920;DHT22;29578;51.946;5.874;2022-08-05T01:16:59;19.00;76.20
43920;DHT22;29578;51.946;5.874;2022-08-05T01:19:37;19.00;76.20
43920;DHT22;29578;51.946;5.874;2022-08-05T01:22:22;19.00;76.20
43920;DHT22;29578;51.946;5.874;2022-08-05T01:25:05;19.00;76.30
43920;DHT22;29578;51.946;5.874;2022-08-05T01:28:02;19.00;76.40
43920;DHT22;29578;51.946;5.874;2022-08-05T01:30:38;19.00;76.40
43920;DHT22;29578;51.946;5.874;2022-08-05T01:33:06;19.00;76.30
43920;DHT22;29578;51.946;5.874;2022-08-05T01:35:36;18.90;76.40
43920;DHT22;29578;51.946;5.874;2022-08-05T01:38:05;18.90;76.30
43920;DHT22;29578;51.946;5.874;2022-08-05T01:40:32;18.90;76.40
43920;DHT22;29578;51.946;5.874;2022-08-05T01:43:00;18.90;76.50
43920;DHT22;29578;51.946;5.874;2022-08-05T01:45:29;19.00;76.50
43920;DHT22;29578;51.946;5.874;2022-08-05T01:47:57;19.00;76.50
43920;DHT22;29578;51.946;5.874;2022-08-05T01:50:27;18.80;76.40
43920;DHT22;29578;51.946;5.874;2022-08-05T01:52:56;18.90;76.50
43920;DHT22;29578;51.946;5.874;2022-08-05T01:55:28;18.90;76.60
43920;DHT22;29578;51.946;5.874;2022-08-05T01:57:56;18.90;76.50
43920;DHT22;29578;51.946;5.874;2022-08-05T02:00:23;18.90;76.50
43920;DHT22;29578;51.946;5.874;2022-08-05T02:02:56;18.90;76.50
43920;DHT22;29578;51.946;5.874;2022-08-05T02:05:27;18.90;76.60
43920;DHT22;29578;51.946;5.874;2022-08-05T02:07:56;19.00;76.60
43920;DHT22;29578;51.946;5.874;2022-08-05T02:10:21;19.00;76.60
43920;DHT22;29578;51.946;5.874;2022-08-05T02:12:56;18.90;77.20
43920;DHT22;29578;51.946;5.874;2022-08-05T02:15:28;18.90;76.70
43920;DHT22;29578;51.946;5.874;2022-08-05T02:18:05;19.00;76.70
43920;DHT22;29578;51.946;5.874;2022-08-05T02:23:18;18.90;76.70
43920;DHT22;29578;51.946;5.874;2022-08-05T02:25:45;19.00;76.70
43920;DHT22;29578;51.946;5.874;2022-08-05T02:28:14;19.00;76.70
43920;DHT22;29578;51.946;5.874;2022-08-05T02:30:49;19.00;76.70
43920;DHT22;29578;51.946;5.874;2022-08-05T02:33:18;18.90;76.70
43920;DHT22;29578;51.946;5.874;2022-08-05T02:35:45;19.00;76.70
43920;DHT22;29578;51.946;5.874;2022-08-05T02:38:12;18.90;76.60
43920;DHT22;29578;51.946;5.874;2022-08-05T02:40:41;19.00;76.70
43920;DHT22;29578;51.946;5.874;2022-08-05T02:43:09;19.00;76.70
43920;DHT22;29578;51.946;5.874;2022-08-05T02:45:37;19.00;77.40
43920;DHT22;29578;51.946;5.874;2022-08-05T02:48:06;18.90;76.80
43920;DHT22;29578;51.946;5.874;2022-08-05T02:50:35;18.90;76.80
43920;DHT22;29578;51.946;5.874;2022-08-05T02:53:01;18.90;77.00
43920;DHT22;29578;51.946;5.874;2022-08-05T02:55:29;18.80;76.90
43920;DHT22;29578;51.946;5.874;2022-08-05T02:57:55;18.80;77.00
43920;DHT22;29578;51.946;5.874;2022-08-05T03:00:23;18.80;77.00
43920;DHT22;29578;51.946;5.874;2022-08-05T03:02:49;18.80;77.20
43920;DHT22;29578;51.946;5.874;2022-08-05T03:05:16;18.90;77.20
43920;DHT22;29578;51.946;5.874;2022-08-05T03:07:43;18.80;77.20
43920;DHT22;29578;51.946;5.874;2022-08-05T03:10:09;18.80;77.30
43920;DHT22;29578;51.946;5.874;2022-08-05T03:12:37;18.80;77.30
43920;DHT22;29578;51.946;5.874;2022-08-05T03:15:05;18.80;77.90
43920;DHT22;29578;51.946;5.874;2022-08-05T03:17:31;18.90;77.20
43920;DHT22;29578;51.946;5.874;2022-08-05T03:19:57;18.80;77.20
43920;DHT22;29578;51.946;5.874;2022-08-05T03:22:23;18.90;77.20
43920;DHT22;29578;51.946;5.874;2022-08-05T03:24:50;18.90;77.30
43920;DHT22;29578;51.946;5.874;2022-08-05T03:27:16;18.90;77.30
43920;DHT22;29578;51.946;5.874;2022-08-05T03:29:42;18.80;77.20
43920;DHT22;29578;51.946;5.874;2022-08-05T03:32:08;18.90;77.40
43920;DHT22;29578;51.946;5.874;2022-08-05T03:34:35;18.90;77.40
43920;DHT22;29578;51.946;5.874;2022-08-05T03:37:02;18.90;77.40
43920;DHT22;29578;51.946;5.874;2022-08-05T03:39:29;18.90;77.40
43920;DHT22;29578;51.946;5.874;2022-08-05T03:41:55;18.80;77.40
43920;DHT22;29578;51.946;5.874;2022-08-05T03:44:21;18.80;77.40
43920;DHT22;29578;51.946;5.874;2022-08-05T03:46:47;18.80;77.40
43920;DHT22;29578;51.946;5.874;2022-08-05T03:49:13;18.80;77.40
43920;DHT22;29578;51.946;5.874;2022-08-05T03:51:47;18.80;77.50
43920;DHT22;29578;51.946;5.874;2022-08-05T03:57:04;18.80;77.60
43920;DHT22;29578;51.946;5.874;2022-08-05T03:59:36;18.80;77.50
43920;DHT22;29578;51.946;5.874;2022-08-05T04:02:06;18.80;77.60
43920;DHT22;29578;51.946;5.874;2022-08-05T04:04:33;18.80;77.60
43920;DHT22;29578;51.946;5.874;2022-08-05T04:07:00;18.90;77.80
43920;DHT22;29578;51.946;5.874;2022-08-05T04:09:28;18.80;77.70
43920;DHT22;29578;51.946;5.874;2022-08-05T04:11:55;18.70;77.70
43920;DHT22;29578;51.946;5.874;2022-08-05T04:14:21;18.80;77.80
43920;DHT22;29578;51.946;5.874;2022-08-05T04:16:47;18.70;77.70
43920;DHT22;29578;51.946;5.874;2022-08-05T04:19:14;18.90;77.90
43920;DHT22;29578;51.946;5.874;2022-08-05T04:21:40;18.80;77.90
43920;DHT22;29578;51.946;5.874;2022-08-05T04:24:07;18.80;77.90
43920;DHT22;29578;51.946;5.874;2022-08-05T04:26:33;18.80;78.00
43920;DHT22;29578;51.946;5.874;2022-08-05T04:29:00;18.80;78.00
43920;DHT22;29578;51.946;5.874;2022-08-05T04:31:27;18.70;78.00
43920;DHT22;29578;51.946;5.874;2022-08-05T04:33:53;18.70;78.10
43920;DHT22;29578;51.946;5.874;2022-08-05T04:36:19;18.70;78.20
43920;DHT22;29578;51.946;5.874;2022-08-05T04:38:45;18.60;78.20
43920;DHT22;29578;51.946;5.874;2022-08-05T04:41:12;18.60;78.30
43920;DHT22;29578;51.946;5.874;2022-08-05T04:43:38;18.60;78.30
43920;DHT22;29578;51.946;5.874;2022-08-05T04:46:05;18.60;78.40
43920;DHT22;29578;51.946;5.874;2022-08-05T04:48:31;18.60;78.40
43920;DHT22;29578;51.946;5.874;2022-08-05T04:50:58;18.60;78.40
43920;DHT22;29578;51.946;5.874;2022-08-05T04:53:26;18.70;78.50
43920;DHT22;29578;51.946;5.874;2022-08-05T04:55:53;18.60;78.40
43920;DHT22;29578;51.946;5.874;2022-08-05T04:58:20;18.60;78.40
43920;DHT22;29578;51.946;5.874;2022-08-05T05:00:46;18.70;78.40
43920;DHT22;29578;51.946;5.874;2022-08-05T05:03:12;18.70;78.50
43920;DHT22;29578;51.946;5.874;2022-08-05T05:05:39;18.70;78.40
43920;DHT22;29578;51.946;5.874;2022-08-05T05:08:08;18.70;78.40
43920;DHT22;29578;51.946;5.874;2022-08-05T05:10:40;18.70;78.40
43920;DHT22;29578;51.946;5.874;2022-08-05T05:13:09;18.80;78.40
43920;DHT22;29578;51.946;5.874;2022-08-05T05:15:36;18.70;78.40
43920;DHT22;29578;51.946;5.874;2022-08-05T05:18:03;18.70;78.40
43920;DHT22;29578;51.946;5.874;2022-08-05T05:20:29;18.70;78.50
43920;DHT22;29578;51.946;5.874;2022-08-05T05:22:57;18.70;78.60
43920;DHT22;29578;51.946;5.874;2022-08-05T05:25:24;18.80;78.70
43920;DHT22;29578;51.946;5.874;2022-08-05T05:27:51;18.70;78.60
43920;DHT22;29578;51.946;5.874;2022-08-05T05:30:18;18.60;78.60
43920;DHT22;29578;51.946;5.874;2022-08-05T05:32:47;18.70;78.70
43920;DHT22;29578;51.946;5.874;2022-08-05T05:35:13;18.70;79.30
43920;DHT22;29578;51.946;5.874;2022-08-05T05:37:49;18.70;78.50
43920;DHT22;29578;51.946;5.874;2022-08-05T05:40:17;18.80;78.60
43920;DHT22;29578;51.946;5.874;2022-08-05T05:42:45;18.90;78.50
43920;DHT22;29578;51.946;5.874;2022-08-05T05:45:11;18.90;78.40
43920;DHT22;29578;51.946;5.874;2022-08-05T05:47:37;18.90;78.30
43920;DHT22;29578;51.946;5.874;2022-08-05T05:50:03;18.80;78.20
43920;DHT22;29578;51.946;5.874;2022-08-05T05:52:29;18.80;78.20
43920;DHT22;29578;51.946;5.874;2022-08-05T05:54:59;18.90;78.30
43920;DHT22;29578;51.946;5.874;2022-08-05T05:57:25;18.70;78.30
43920;DHT22;29578;51.946;5.874;2022-08-05T05:59:52;18.80;78.50
43920;DHT22;29578;51.946;5.874;2022-08-05T06:02:18;18.80;78.60
43920;DHT22;29578;51.946;5.874;2022-08-05T06:04:44;18.80;78.60
43920;DHT22;29578;51.946;5.874;2022-08-05T06:07:10;18.80;78.60
43920;DHT22;29578;51.946;5.874;2022-08-05T06:09:36;18.80;78.60
43920;DHT22;29578;51.946;5.874;2022-08-05T06:12:03;18.80;78.60
43920;DHT22;29578;51.946;5.874;2022-08-05T06:14:30;18.90;78.60
43920;DHT22;29578;51.946;5.874;2022-08-05T06:16:57;18.90;78.60
43920;DHT22;29578;51.946;5.874;2022-08-05T06:19:23;18.90;78.60
43920;DHT22;29578;51.946;5.874;2022-08-05T06:21:49;18.80;78.50
43920;DHT22;29578;51.946;5.874;2022-08-05T06:24:16;18.90;78.50
43920;DHT22;29578;51.946;5.874;2022-08-05T06:26:42;19.00;78.40
43920;DHT22;29578;51.946;5.874;2022-08-05T06:29:08;19.10;78.40
43920;DHT22;29578;51.946;5.874;2022-08-05T06:31:34;19.00;78.30
43920;DHT22;29578;51.946;5.874;2022-08-05T06:34:01;19.10;78.20
43920;DHT22;29578;51.946;5.874;2022-08-05T06:36:27;19.00;78.10
43920;DHT22;29578;51.946;5.874;2022-08-05T06:38:54;19.10;78.10
43920;DHT22;29578;51.946;5.874;2022-08-05T06:41:21;19.20;78.10
43920;DHT22;29578;51.946;5.874;2022-08-05T06:43:48;19.10;78.10
43920;DHT22;29578;51.946;5.874;2022-08-05T06:46:14;19.10;78.10
43920;DHT22;29578;51.946;5.874;2022-08-05T06:48:40;19.10;78.20
43920;DHT22;29578;51.946;5.874;2022-08-05T06:51:06;19.20;78.10
43920;DHT22;29578;51.946;5.874;2022-08-05T06:53:33;19.10;78.00
43920;DHT22;29578;51.946;5.874;2022-08-05T06:56:00;19.20;78.00
43920;DHT22;29578;51.946;5.874;2022-08-05T06:58:29;19.20;78.00
43920;DHT22;29578;51.946;5.874;2022-08-05T07:00:58;19.20;78.00
43920;DHT22;29578;51.946;5.874;2022-08-05T07:03:25;19.20;77.90
43920;DHT22;29578;51.946;5.874;2022-08-05T07:05:51;19.30;77.80
43920;DHT22;29578;51.946;5.874;2022-08-05T07:08:17;19.40;77.70
43920;DHT22;29578;51.946;5.874;2022-08-05T07:10:43;19.40;77.60
43920;DHT22;29578;51.946;5.874;2022-08-05T07:13:09;19.40;77.50
43920;DHT22;29578;51.946;5.874;2022-08-05T07:15:51;19.40;77.50
43920;DHT22;29578;51.946;5.874;2022-08-05T07:18:32;19.40;77.40
43920;DHT22;29578;51.946;5.874;2022-08-05T07:20:58;19.50;77.30
43920;DHT22;29578;51.946;5.874;2022-08-05T07:23:23;19.50;77.30
43920;DHT22;29578;51.946;5.874;2022-08-05T07:25:49;19.50;77.20
43920;DHT22;29578;51.946;5.874;2022-08-05T07:28:15;19.50;77.20
43920;DHT22;29578;51.946;5.874;2022-08-05T07:30:41;19.50;77.20
43920;DHT22;29578;51.946;5.874;2022-08-05T07:33:10;19.60;77.10
43920;DHT22;29578;51.946;5.874;2022-08-05T07:35:38;19.60;77.00
43920;DHT22;29578;51.946;5.874;2022-08-05T07:38:04;19.70;77.00
43920;DHT22;29578;51.946;5.874;2022-08-05T07:40:30;19.70;76.80
43920;DHT22;29578;51.946;5.874;2022-08-05T07:42:56;19.80;76.80
43920;DHT22;29578;51.946;5.874;2022-08-05T07:45:22;19.80;76.50
43920;DHT22;29578;51.946;5.874;2022-08-05T07:47:49;19.90;76.40
43920;DHT22;29578;51.946;5.874;2022-08-05T07:50:15;20.00;76.30
43920;DHT22;29578;51.946;5.874;2022-08-05T07:52:42;20.00;76.00
43920;DHT22;29578;51.946;5.874;2022-08-05T07:55:09;20.20;76.00
43920;DHT22;29578;51.946;5.874;2022-08-05T07:57:35;20.20;75.80
43920;DHT22;29578;51.946;5.874;2022-08-05T08:00:04;20.30;75.40
43920;DHT22;29578;51.946;5.874;2022-08-05T08:02:30;20.50;75.40
43920;DHT22;29578;51.946;5.874;2022-08-05T08:04:56;20.70;74.80
43920;DHT22;29578;51.946;5.874;2022-08-05T08:07:22;20.80;74.40
43920;DHT22;29578;51.946;5.874;2022-08-05T08:09:50;21.10;74.10
43920;DHT22;29578;51.946;5.874;2022-08-05T08:12:17;21.20;73.40
43920;DHT22;29578;51.946;5.874;2022-08-05T08:14:44;21.30;73.30
43920;DHT22;29578;51.946;5.874;2022-08-05T08:17:10;21.40;73.10
43920;DHT22;29578;51.946;5.874;2022-08-05T08:19:37;21.50;72.90
43920;DHT22;29578;51.946;5.874;2022-08-05T08:22:04;21.60;72.30
43920;DHT22;29578;51.946;5.874;2022-08-05T08:24:31;21.70;72.20
43920;DHT22;29578;51.946;5.874;2022-08-05T08:26:58;21.80;72.30
43920;DHT22;29578;51.946;5.874;2022-08-05T08:29:23;21.80;72.30
43920;DHT22;29578;51.946;5.874;2022-08-05T08:31:50;21.80;72.20
43920;DHT22;29578;51.946;5.874;2022-08-05T08:34:18;21.80;72.30
43920;DHT22;29578;51.946;5.874;2022-08-05T08:36:44;21.70;72.30
43920;DHT22;29578;51.946;5.874;2022-08-05T08:39:10;21.80;72.30
43920;DHT22;29578;51.946;5.874;2022-08-05T08:41:40;22.00;72.20
43920;DHT22;29578;51.946;5.874;2022-08-05T08:44:07;22.00;72.00
43920;DHT22;29578;51.946;5.874;2022-08-05T08:46:34;22.00;71.90
43920;DHT22;29578;51.946;5.874;2022-08-05T08:49:02;22.00;71.80
43920;DHT22;29578;51.946;5.874;2022-08-05T08:51:32;21.90;71.80
43920;DHT22;29578;51.946;5.874;2022-08-05T08:53:59;21.90;72.00
43920;DHT22;29578;51.946;5.874;2022-08-05T08:56:25;21.90;72.10
43920;DHT22;29578;51.946;5.874;2022-08-05T08:58:51;21.90;72.20
43920;DHT22;29578;51.946;5.874;2022-08-05T09:01:18;21.80;72.30
43920;DHT22;29578;51.946;5.874;2022-08-05T09:03:52;21.70;72.50
43920;DHT22;29578;51.946;5.874;2022-08-05T09:06:19;21.60;72.70
43920;DHT22;29578;51.946;5.874;2022-08-05T09:08:47;21.60;72.90
43920;DHT22;29578;51.946;5.874;2022-08-05T09:11:12;21.50;72.90
43920;DHT22;29578;51.946;5.874;2022-08-05T09:13:40;21.40;72.90
43920;DHT22;29578;51.946;5.874;2022-08-05T09:16:06;21.40;72.90
43920;DHT22;29578;51.946;5.874;2022-08-05T09:18:35;21.30;72.90
43920;DHT22;29578;51.946;5.874;2022-08-05T09:21:02;21.40;72.90
43920;DHT22;29578;51.946;5.874;2022-08-05T09:23:28;21.50;72.70
43920;DHT22;29578;51.946;5.874;2022-08-05T09:26:07;21.40;72.40
43920;DHT22;29578;51.946;5.874;2022-08-05T09:28:36;21.50;72.20
43920;DHT22;29578;51.946;5.874;2022-08-05T09:31:06;21.50;71.80
43920;DHT22;29578;51.946;5.874;2022-08-05T09:33:50;21.50;71.60
43920;DHT22;29578;51.946;5.874;2022-08-05T09:36:18;21.50;71.40
43920;DHT22;29578;51.946;5.874;2022-08-05T09:39:06;21.70;71.20
43920;DHT22;29578;51.946;5.874;2022-08-05T09:41:32;22.00;70.40
43920;DHT22;29578;51.946;5.874;2022-08-05T09:43:58;22.20;69.90
43920;DHT22;29578;51.946;5.874;2022-08-05T09:46:29;22.50;69.00
43920;DHT22;29578;51.946;5.874;2022-08-05T09:48:58;22.70;68.10
43920;DHT22;29578;51.946;5.874;2022-08-05T09:51:34;22.70;67.70
43920;DHT22;29578;51.946;5.874;2022-08-05T09:54:02;22.70;67.60
43920;DHT22;29578;51.946;5.874;2022-08-05T09:56:32;22.90;67.60
43920;DHT22;29578;51.946;5.874;2022-08-05T09:59:03;23.00;67.10
43920;DHT22;29578;51.946;5.874;2022-08-05T10:01:31;23.10;66.70
43920;DHT22;29578;51.946;5.874;2022-08-05T10:04:02;23.30;66.40
43920;DHT22;29578;51.946;5.874;2022-08-05T10:06:29;23.40;66.00
43920;DHT22;29578;51.946;5.874;2022-08-05T10:09:03;23.50;66.00
43920;DHT22;29578;51.946;5.874;2022-08-05T10:11:34;23.70;65.60
43920;DHT22;29578;51.946;5.874;2022-08-05T10:14:23;23.90;64.60
43920;DHT22;29578;51.946;5.874;2022-08-05T10:16:50;23.80;65.00
43920;DHT22;29578;51.946;5.874;2022-08-05T10:19:16;23.70;64.70
43920;DHT22;29578;51.946;5.874;2022-08-05T10:21:42;23.60;65.00
43920;DHT22;29578;51.946;5.874;2022-08-05T10:24:11;23.50;65.10
43920;DHT22;29578;51.946;5.874;2022-08-05T10:26:41;23.60;65.20
43920;DHT22;29578;51.946;5.874;2022-08-05T10:29:08;23.70;64.70
43920;DHT22;29578;51.946;5.874;2022-08-05T10:31:35;23.90;64.30
43920;DHT22;29578;51.946;5.874;2022-08-05T10:34:03;24.10;63.50
43920;DHT22;29578;51.946;5.874;2022-08-05T10:36:29;24.20;63.20
43920;DHT22;29578;51.946;5.874;2022-08-05T10:39:01;24.30;63.10
43920;DHT22;29578;51.946;5.874;2022-08-05T10:41:33;24.20;62.80
43920;DHT22;29578;51.946;5.874;2022-08-05T10:44:06;24.20;62.80
43920;DHT22;29578;51.946;5.874;2022-08-05T10:46:51;24.20;62.70
43920;DHT22;29578;51.946;5.874;2022-08-05T10:49:18;24.20;62.70
43920;DHT22;29578;51.946;5.874;2022-08-05T10:51:47;24.10;62.70
43920;DHT22;29578;51.946;5.874;2022-08-05T10:54:15;24.10;62.60
43920;DHT22;29578;51.946;5.874;2022-08-05T10:56:52;24.00;62.50
43920;DHT22;29578;51.946;5.874;2022-08-05T10:59:29;23.90;62.30
43920;DHT22;29578;51.946;5.874;2022-08-05T11:02:12;24.10;62.00
43920;DHT22;29578;51.946;5.874;2022-08-05T11:04:47;24.20;61.70
43920;DHT22;29578;51.946;5.874;2022-08-05T11:07:14;24.20;61.30
43920;DHT22;29578;51.946;5.874;2022-08-05T11:09:48;24.20;61.20
43920;DHT22;29578;51.946;5.874;2022-08-05T11:12:41;24.30;61.00
43920;DHT22;29578;51.946;5.874;2022-08-05T11:15:17;24.50;60.60
43920;DHT22;29578;51.946;5.874;2022-08-05T11:17:46;24.60;60.10
43920;DHT22;29578;51.946;5.874;2022-08-05T11:20:37;24.60;59.80
43920;DHT22;29578;51.946;5.874;2022-08-05T11:26:05;24.50;59.60
43920;DHT22;29578;51.946;5.874;2022-08-05T11:28:38;24.30;59.60
43920;DHT22;29578;51.946;5.874;2022-08-05T11:31:18;24.10;59.50
43920;DHT22;29578;51.946;5.874;2022-08-05T11:33:57;24.10;59.70
43920;DHT22;29578;51.946;5.874;2022-08-05T11:36:38;24.00;59.30
43920;DHT22;29578;51.946;5.874;2022-08-05T11:39:06;24.10;59.30
43920;DHT22;29578;51.946;5.874;2022-08-05T11:41:33;24.00;59.30
43920;DHT22;29578;51.946;5.874;2022-08-05T11:44:05;23.90;59.10
43920;DHT22;29578;51.946;5.874;2022-08-05T11:46:36;23.90;58.90
43920;DHT22;29578;51.946;5.874;2022-08-05T11:49:04;23.90;58.80
43920;DHT22;29578;51.946;5.874;2022-08-05T11:51:31;23.90;59.30
43920;DHT22;29578;51.946;5.874;2022-08-05T11:53:57;23.80;58.60
43920;DHT22;29578;51.946;5.874;2022-08-05T11:56:23;23.70;58.60
43920;DHT22;29578;51.946;5.874;2022-08-05T11:58:50;23.70;58.60
43920;DHT22;29578;51.946;5.874;2022-08-05T12:01:18;23.70;58.40
43920;DHT22;29578;51.946;5.874;2022-08-05T12:03:47;23.70;58.30
43920;DHT22;29578;51.946;5.874;2022-08-05T12:06:16;23.70;58.10
43920;DHT22;29578;51.946;5.874;2022-08-05T12:08:47;23.80;57.70
43920;DHT22;29578;51.946;5.874;2022-08-05T12:11:24;23.90;57.30
43920;DHT22;29578;51.946;5.874;2022-08-05T12:13:58;23.80;56.90
43920;DHT22;29578;51.946;5.874;2022-08-05T12:16:27;23.80;57.10
43920;DHT22;29578;51.946;5.874;2022-08-05T12:18:59;23.90;56.70
43920;DHT22;29578;51.946;5.874;2022-08-05T12:21:28;24.00;56.20
43920;DHT22;29578;51.946;5.874;2022-08-05T12:24:10;23.80;55.80
43920;DHT22;29578;51.946;5.874;2022-08-05T12:26:41;23.70;55.60
43920;DHT22;29578;51.946;5.874;2022-08-05T12:29:11;23.70;55.60
43920;DHT22;29578;51.946;5.874;2022-08-05T12:31:38;23.60;55.20
43920;DHT22;29578;51.946;5.874;2022-08-05T12:34:06;23.60;55.30
43920;DHT22;29578;51.946;5.874;2022-08-05T12:36:34;23.60;55.20
43920;DHT22;29578;51.946;5.874;2022-08-05T12:39:00;23.50;54.90
43920;DHT22;29578;51.946;5.874;2022-08-05T12:41:30;23.50;54.80
43920;DHT22;29578;51.946;5.874;2022-08-05T12:44:00;23.50;54.80
43920;DHT22;29578;51.946;5.874;2022-08-05T12:46:28;23.50;54.80
43920;DHT22;29578;51.946;5.874;2022-08-05T12:49:00;23.60;54.70
43920;DHT22;29578;51.946;5.874;2022-08-05T12:51:26;23.60;54.30
43920;DHT22;29578;51.946;5.874;2022-08-05T12:53:58;23.70;54.10
43920;DHT22;29578;51.946;5.874;2022-08-05T12:56:25;23.70;53.60
43920;DHT22;29578;51.946;5.874;2022-08-05T12:59:09;23.70;53.40
43920;DHT22;29578;51.946;5.874;2022-08-05T13:01:35;23.70;53.40
43920;DHT22;29578;51.946;5.874;2022-08-05T13:04:03;23.60;53.50
43920;DHT22;29578;51.946;5.874;2022-08-05T13:06:29;23.50;53.40
43920;DHT22;29578;51.946;5.874;2022-08-05T13:08:55;23.50;53.50
43920;DHT22;29578;51.946;5.874;2022-08-05T13:11:26;23.40;53.30
43920;DHT22;29578;51.946;5.874;2022-08-05T13:13:55;23.30;53.20
43920;DHT22;29578;51.946;5.874;2022-08-05T13:16:21;23.20;53.10
43920;DHT22;29578;51.946;5.874;2022-08-05T13:18:51;23.10;53.10
43920;DHT22;29578;51.946;5.874;2022-08-05T13:21:17;23.10;53.20
43920;DHT22;29578;51.946;5.874;2022-08-05T13:23:42;23.20;53.10
43920;DHT22;29578;51.946;5.874;2022-08-05T13:26:08;23.30;52.80
43920;DHT22;29578;51.946;5.874;2022-08-05T13:28:34;23.40;52.80
43920;DHT22;29578;51.946;5.874;2022-08-05T13:30:59;23.40;52.60
43920;DHT22;29578;51.946;5.874;2022-08-05T13:33:25;23.40;52.50
43920;DHT22;29578;51.946;5.874;2022-08-05T13:35:51;23.20;52.30
43920;DHT22;29578;51.946;5.874;2022-08-05T13:38:17;23.10;52.50
43920;DHT22;29578;51.946;5.874;2022-08-05T13:40:43;23.10;52.60
43920;DHT22;29578;51.946;5.874;2022-08-05T13:43:09;23.00;52.70
43920;DHT22;29578;51.946;5.874;2022-08-05T13:45:36;22.90;52.90
43920;DHT22;29578;51.946;5.874;2022-08-05T13:48:02;22.90;52.90
43920;DHT22;29578;51.946;5.874;2022-08-05T13:50:28;22.90;52.90
43920;DHT22;29578;51.946;5.874;2022-08-05T13:52:53;22.90;52.80
43920;DHT22;29578;51.946;5.874;2022-08-05T13:55:19;22.80;52.70
43920;DHT22;29578;51.946;5.874;2022-08-05T13:57:45;22.80;52.50
43920;DHT22;29578;51.946;5.874;2022-08-05T14:00:11;22.80;52.40
43920;DHT22;29578;51.946;5.874;2022-08-05T14:02:37;22.80;52.40
43920;DHT22;29578;51.946;5.874;2022-08-05T14:05:03;22.80;52.10
43920;DHT22;29578;51.946;5.874;2022-08-05T14:07:39;22.80;52.00
43920;DHT22;29578;51.946;5.874;2022-08-05T14:10:12;22.80;52.00
43920;DHT22;29578;51.946;5.874;2022-08-05T14:12:38;22.80;52.00
43920;DHT22;29578;51.946;5.874;2022-08-05T14:15:05;22.80;51.90
43920;DHT22;29578;51.946;5.874;2022-08-05T14:17:31;22.80;51.90
43920;DHT22;29578;51.946;5.874;2022-08-05T14:19:56;22.70;51.70
43920;DHT22;29578;51.946;5.874;2022-08-05T14:22:22;22.70;51.70
43920;DHT22;29578;51.946;5.874;2022-08-05T14:24:48;22.60;51.80
43920;DHT22;29578;51.946;5.874;2022-08-05T14:27:14;22.50;51.90
43920;DHT22;29578;51.946;5.874;2022-08-05T14:29:40;22.40;52.10
43920;DHT22;29578;51.946;5.874;2022-08-05T14:32:06;22.30;52.30
43920;DHT22;29578;51.946;5.874;2022-08-05T14:34:33;22.30;52.60
43920;DHT22;29578;51.946;5.874;2022-08-05T14:36:59;22.30;52.60
43920;DHT22;29578;51.946;5.874;2022-08-05T14:39:24;22.40;52.60
43920;DHT22;29578;51.946;5.874;2022-08-05T14:41:51;22.50;52.40
43920;DHT22;29578;51.946;5.874;2022-08-05T14:44:16;22.60;52.40
43920;DHT22;29578;51.946;5.874;2022-08-05T14:46:42;22.60;52.30
43920;DHT22;29578;51.946;5.874;2022-08-05T14:49:08;22.50;52.30
43920;DHT22;29578;51.946;5.874;2022-08-05T14:51:35;22.40;52.40
43920;DHT22;29578;51.946;5.874;2022-08-05T14:54:01;22.40;52.50
43920;DHT22;29578;51.946;5.874;2022-08-05T14:56:27;22.50;52.60
43920;DHT22;29578;51.946;5.874;2022-08-05T14:58:52;22.40;52.60
43920;DHT22;29578;51.946;5.874;2022-08-05T15:01:19;22.50;52.60
43920;DHT22;29578;51.946;5.874;2022-08-05T15:03:44;22.50;52.50
43920;DHT22;29578;51.946;5.874;2022-08-05T15:06:10;22.50;52.50
43920;DHT22;29578;51.946;5.874;2022-08-05T15:08:36;22.50;52.50
43920;DHT22;29578;51.946;5.874;2022-08-05T15:11:01;22.60;52.60
43920;DHT22;29578;51.946;5.874;2022-08-05T15:13:27;22.60;52.50
43920;DHT22;29578;51.946;5.874;2022-08-05T15:15:54;22.60;52.50
43920;DHT22;29578;51.946;5.874;2022-08-05T15:18:20;22.50;52.60
43920;DHT22;29578;51.946;5.874;2022-08-05T15:20:46;22.40;52.70
43920;DHT22;29578;51.946;5.874;2022-08-05T15:23:12;22.50;52.60
43920;DHT22;29578;51.946;5.874;2022-08-05T15:25:38;22.50;52.60
43920;DHT22;29578;51.946;5.874;2022-08-05T15:28:05;22.60;52.50
43920;DHT22;29578;51.946;5.874;2022-08-05T15:30:32;22.50;52.30
43920;DHT22;29578;51.946;5.874;2022-08-05T15:32:59;22.60;52.40
43920;DHT22;29578;51.946;5.874;2022-08-05T15:35:26;22.60;52.20
43920;DHT22;29578;51.946;5.874;2022-08-05T15:37:52;22.70;52.20
43920;DHT22;29578;51.946;5.874;2022-08-05T15:40:18;22.70;52.20
43920;DHT22;29578;51.946;5.874;2022-08-05T15:42:44;22.70;52.10
43920;DHT22;29578;51.946;5.874;2022-08-05T15:45:10;22.70;52.10